sensor_id;sensor_type;location;lat;lon;timestamp;temperature;humidity
3986;DHT22;2007;48.750;9.278;2022-07-29T00:02:12;26.90;55.20
3986;DHT22;2007;48.750;9.278;2022-07-29T00:04:40;26.90;55.20
3986;DHT22;2007;48.750;9.278;2022-07-29T00:07:10;26.90;55.20
3986;DHT22;2007;48.750;9.278;2022-07-29T00:09:39;26.90;55.20
3986;DHT22;2007;48.750;9.278;2022-07-29T00:12:18;26.90;55.20
3986;DHT22;2007;48.750;9.278;2022-07-29T00:14:51;26.90;55.20
3986;DHT22;2007;48.750;9.278;2022-07-29T00:17:19;26.90;55.20
3986;DHT22;2007;48.750;9.278;2022-07-29T00:19:47;26.90;55.20
3986;DHT22;2007;48.750;9.278;2022-07-29T00:22:16;26.90;55.20
3986;DHT22;2007;48.750;9.278;2022-07-29T00:24:44;26.90;55.20
3986;DHT22;2007;48.750;9.278;2022-07-29T00:27:12;26.90;55.20
3986;DHT22;2007;48.750;9.278;2022-07-29T00:29:40;26.90;55.20
3986;DHT22;2007;48.750;9.278;2022-07-29T00:32:08;26.90;55.20
3986;DHT22;2007;48.750;9.278;2022-07-29T00:34:36;26.90;55.20
3986;DHT22;2007;48.750;9.278;2022-07-29T00:37:23;26.90;55.20
3986;DHT22;2007;48.750;9.278;2022-07-29T00:39:51;26.90;55.20
3986;DHT22;2007;48.750;9.278;2022-07-29T00:42:19;26.90;55.20
3986;DHT22;2007;48.750;9.278;2022-07-29T00:44:47;26.90;55.20
3986;DHT22;2007;48.750;9.278;2022-07-29T00:47:15;26.90;55.20
3986;DHT22;2007;48.750;9.278;2022-07-29T00:49:43;26.90;55.20
3986;DHT22;2007;48.750;9.278;2022-07-29T00:52:11;26.90;55.20
3986;DHT22;2007;48.750;9.278;2022-07-29T00:54:44;26.90;55.20
3986;DHT22;2007;48.750;9.278;2022-07-29T00:57:12;26.90;55.20
3986;DHT22;2007;48.750;9.278;2022-07-29T00:59:40;26.90;55.20
3986;DHT22;2007;48.750;9.278;2022-07-29T01:02:08;26.90;55.20
3986;DHT22;2007;48.750;9.278;2022-07-29T01:04:36;26.90;55.20
3986;DHT22;2007;48.750;9.278;2022-07-29T01:07:05;26.80;55.10
3986;DHT22;2007;48.750;9.278;2022-07-29T01:09:34;26.90;55.20
3986;DHT22;2007;48.750;9.278;2022-07-29T01:12:16;26.80;55.10
3986;DHT22;2007;48.750;9.278;2022-07-29T01:14:45;26.90;55.20
3986;DHT22;2007;48.750;9.278;2022-07-29T01:17:20;26.80;55.10
3986;DHT22;2007;48.750;9.278;2022-07-29T01:19:56;26.90;55.20
3986;DHT22;2007;48.750;9.278;2022-07-29T01:22:31;26.80;55.20
3986;DHT22;2007;48.750;9.278;2022-07-29T01:25:17;26.80;55.10
3986;DHT22;2007;48.750;9.278;2022-07-29T01:28:08;26.80;55.10
3986;DHT22;2007;48.750;9.278;2022-07-29T01:30:42;26.80;55.10
3986;DHT22;2007;48.750;9.278;2022-07-29T01:33:15;26.80;55.10
3986;DHT22;2007;48.750;9.278;2022-07-29T01:36:00;26.90;55.20
3986;DHT22;2007;48.750;9.278;2022-07-29T01:38:29;26.80;55.10
3986;DHT22;2007;48.750;9.278;2022-07-29T01:41:03;26.80;55.10
3986;DHT22;2007;48.750;9.278;2022-07-29T01:43:36;26.80;55.10
3986;DHT22;2007;48.750;9.278;2022-07-29T01:46:11;26.80;55.20
3986;DHT22;2007;48.750;9.278;2022-07-29T01:48:44;26.80;55.10
3986;DHT22;2007;48.750;9.278;2022-07-29T01:51:18;26.80;55.10
3986;DHT22;2007;48.750;9.278;2022-07-29T01:53:52;26.80;55.10
3986;DHT22;2007;48.750;9.278;2022-07-29T01:56:23;26.80;55.10
3986;DHT22;2007;48.750;9.278;2022-07-29T01:58:52;26.80;55.20
3986;DHT22;2007;48.750;9.278;2022-07-29T02:01:24;26.80;55.10
3986;DHT22;2007;48.750;9.278;2022-07-29T02:03:53;26.80;55.20
3986;DHT22;2007;48.750;9.278;2022-07-29T02:06:22;26.80;55.20
3986;DHT22;2007;48.750;9.278;2022-07-29T02:08:51;26.80;55.20
3986;DHT22;2007;48.750;9.278;2022-07-29T02:11:20;26.80;55.10
3986;DHT22;2007;48.750;9.278;2022-07-29T02:13:49;26.80;55.10
3986;DHT22;2007;48.750;9.278;2022-07-29T02:16:22;26.80;55.10
3986;DHT22;2007;48.750;9.278;2022-07-29T02:18:52;26.80;55.20
3986;DHT22;2007;48.750;9.278;2022-07-29T02:21:25;26.80;55.20
3986;DHT22;2007;48.750;9.278;2022-07-29T02:23:54;26.80;55.10
3986;DHT22;2007;48.750;9.278;2022-07-29T02:26:24;26.80;55.20
3986;DHT22;2007;48.750;9.278;2022-07-29T02:28:56;26.80;55.20
3986;DHT22;2007;48.750;9.278;2022-07-29T02:31:30;26.80;55.10
3986;DHT22;2007;48.750;9.278;2022-07-29T02:33:59;26.80;55.10
3986;DHT22;2007;48.750;9.278;2022-07-29T02:36:29;26.80;55.10
3986;DHT22;2007;48.750;9.278;2022-07-29T02:38:59;26.80;55.20
3986;DHT22;2007;48.750;9.278;2022-07-29T02:41:30;26.80;55.10
3986;DHT22;2007;48.750;9.278;2022-07-29T02:44:04;26.80;55.10
3986;DHT22;2007;48.750;9.278;2022-07-29T02:46:35;26.80;55.10
3986;DHT22;2007;48.750;9.278;2022-07-29T02:49:09;26.80;55.20
3986;DHT22;2007;48.750;9.278;2022-07-29T02:51:41;26.80;55.20
3986;DHT22;2007;48.750;9.278;2022-07-29T02:54:17;26.80;55.20
3986;DHT22;2007;48.750;9.278;2022-07-29T02:56:48;26.80;55.20
3986;DHT22;2007;48.750;9.278;2022-07-29T02:59:22;26.80;55.20
3986;DHT22;2007;48.750;9.278;2022-07-29T03:01:52;26.80;55.20
3986;DHT22;2007;48.750;9.278;2022-07-29T03:04:23;26.80;55.20
3986;DHT22;2007;48.750;9.278;2022-07-29T03:06:53;26.80;55.20
3986;DHT22;2007;48.750;9.278;2022-07-29T03:09:21;26.80;55.20
3986;DHT22;2007;48.750;9.278;2022-07-29T03:11:51;26.80;55.20
3986;DHT22;2007;48.750;9.278;2022-07-29T03:14:21;26.80;55.20
3986;DHT22;2007;48.750;9.278;2022-07-29T03:16:52;26.80;55.20
3986;DHT22;2007;48.750;9.278;2022-07-29T03:19:20;26.80;55.20
3986;DHT22;2007;48.750;9.278;2022-07-29T03:21:48;26.80;55.20
3986;DHT22;2007;48.750;9.278;2022-07-29T03:24:27;26.80;55.80
3986;DHT22;2007;48.750;9.278;2022-07-29T03:26:56;26.80;55.20
3986;DHT22;2007;48.750;9.278;2022-07-29T03:29:25;26.80;55.20
3986;DHT22;2007;48.750;9.278;2022-07-29T03:32:02;26.80;55.20
3986;DHT22;2007;48.750;9.278;2022-07-29T03:34:35;26.80;55.20
3986;DHT22;2007;48.750;9.278;2022-07-29T03:37:04;26.80;55.20
3986;DHT22;2007;48.750;9.278;2022-07-29T03:39:36;26.80;55.20
3986;DHT22;2007;48.750;9.278;2022-07-29T03:42:07;26.80;55.20
3986;DHT22;2007;48.750;9.278;2022-07-29T03:44:37;26.80;55.20
3986;DHT22;2007;48.750;9.278;2022-07-29T03:47:09;26.80;55.20
3986;DHT22;2007;48.750;9.278;2022-07-29T03:49:39;26.80;55.20
3986;DHT22;2007;48.750;9.278;2022-07-29T03:52:09;26.80;55.20
3986;DHT22;2007;48.750;9.278;2022-07-29T03:54:37;26.80;55.20
3986;DHT22;2007;48.750;9.278;2022-07-29T03:57:06;26.80;55.20
3986;DHT22;2007;48.750;9.278;2022-07-29T03:59:35;26.70;55.20
3986;DHT22;2007;48.750;9.278;2022-07-29T04:02:05;26.80;55.20
3986;DHT22;2007;48.750;9.278;2022-07-29T04:04:35;26.80;55.20
3986;DHT22;2007;48.750;9.278;2022-07-29T04:07:04;26.70;55.10
3986;DHT22;2007;48.750;9.278;2022-07-29T04:09:32;26.70;55.10
3986;DHT22;2007;48.750;9.278;2022-07-29T04:12:00;26.70;55.10
3986;DHT22;2007;48.750;9.278;2022-07-29T04:14:31;26.80;55.20
3986;DHT22;2007;48.750;9.278;2022-07-29T04:17:00;26.70;55.10
3986;DHT22;2007;48.750;9.278;2022-07-29T04:19:28;26.70;55.20
3986;DHT22;2007;48.750;9.278;2022-07-29T04:21:58;26.70;55.10
3986;DHT22;2007;48.750;9.278;2022-07-29T04:24:27;26.70;55.20
3986;DHT22;2007;48.750;9.278;2022-07-29T04:26:55;26.70;55.20
3986;DHT22;2007;48.750;9.278;2022-07-29T04:29:22;26.70;55.20
3986;DHT22;2007;48.750;9.278;2022-07-29T04:31:50;26.70;55.20
3986;DHT22;2007;48.750;9.278;2022-07-29T04:34:18;26.70;55.10
3986;DHT22;2007;48.750;9.278;2022-07-29T04:36:46;26.70;55.10
3986;DHT22;2007;48.750;9.278;2022-07-29T04:39:16;26.70;55.20
3986;DHT22;2007;48.750;9.278;2022-07-29T04:41:49;26.70;55.20
3986;DHT22;2007;48.750;9.278;2022-07-29T04:44:22;26.70;55.10
3986;DHT22;2007;48.750;9.278;2022-07-29T04:46:55;26.70;55.10
3986;DHT22;2007;48.750;9.278;2022-07-29T04:49:23;26.70;55.10
3986;DHT22;2007;48.750;9.278;2022-07-29T04:51:52;26.70;55.20
3986;DHT22;2007;48.750;9.278;2022-07-29T04:54:21;26.70;55.20
3986;DHT22;2007;48.750;9.278;2022-07-29T04:56:50;26.70;55.20
3986;DHT22;2007;48.750;9.278;2022-07-29T04:59:18;26.70;55.20
3986;DHT22;2007;48.750;9.278;2022-07-29T05:01:46;26.70;55.20
3986;DHT22;2007;48.750;9.278;2022-07-29T05:04:14;26.70;55.20
3986;DHT22;2007;48.750;9.278;2022-07-29T05:06:42;26.70;55.20
3986;DHT22;2007;48.750;9.278;2022-07-29T05:09:10;26.70;55.20
3986;DHT22;2007;48.750;9.278;2022-07-29T05:11:40;26.70;55.20
3986;DHT22;2007;48.750;9.278;2022-07-29T05:14:08;26.70;55.80
3986;DHT22;2007;48.750;9.278;2022-07-29T05:16:35;26.70;55.20
3986;DHT22;2007;48.750;9.278;2022-07-29T05:19:03;26.70;55.20
3986;DHT22;2007;48.750;9.278;2022-07-29T05:21:37;26.70;55.20
3986;DHT22;2007;48.750;9.278;2022-07-29T05:24:05;26.70;55.20
3986;DHT22;2007;48.750;9.278;2022-07-29T05:26:34;26.60;55.10
3986;DHT22;2007;48.750;9.278;2022-07-29T05:29:03;26.70;55.20
3986;DHT22;2007;48.750;9.278;2022-07-29T05:31:31;26.70;55.20
3986;DHT22;2007;48.750;9.278;2022-07-29T05:34:00;26.60;55.20
3986;DHT22;2007;48.750;9.278;2022-07-29T05:36:28;26.70;55.20
3986;DHT22;2007;48.750;9.278;2022-07-29T05:38:56;26.70;55.20
3986;DHT22;2007;48.750;9.278;2022-07-29T05:41:24;26.60;55.20
3986;DHT22;2007;48.750;9.278;2022-07-29T05:43:52;26.60;55.20
3986;DHT22;2007;48.750;9.278;2022-07-29T05:46:21;26.60;55.10
3986;DHT22;2007;48.750;9.278;2022-07-29T05:48:50;26.60;55.20
3986;DHT22;2007;48.750;9.278;2022-07-29T05:51:17;26.60;55.20
3986;DHT22;2007;48.750;9.278;2022-07-29T05:53:45;26.60;55.10
3986;DHT22;2007;48.750;9.278;2022-07-29T05:56:13;26.60;55.20
3986;DHT22;2007;48.750;9.278;2022-07-29T05:58:41;26.60;55.20
3986;DHT22;2007;48.750;9.278;2022-07-29T06:01:09;26.60;55.20
3986;DHT22;2007;48.750;9.278;2022-07-29T06:03:39;26.60;55.20
3986;DHT22;2007;48.750;9.278;2022-07-29T06:06:07;26.60;55.20
3986;DHT22;2007;48.750;9.278;2022-07-29T06:08:36;26.60;55.20
3986;DHT22;2007;48.750;9.278;2022-07-29T06:11:04;26.60;55.20
3986;DHT22;2007;48.750;9.278;2022-07-29T06:13:32;26.60;55.20
3986;DHT22;2007;48.750;9.278;2022-07-29T06:16:00;26.60;55.20
3986;DHT22;2007;48.750;9.278;2022-07-29T06:18:28;26.60;55.20
3986;DHT22;2007;48.750;9.278;2022-07-29T06:20:58;26.60;55.20
3986;DHT22;2007;48.750;9.278;2022-07-29T06:23:26;26.60;55.20
3986;DHT22;2007;48.750;9.278;2022-07-29T06:25:53;26.60;55.20
3986;DHT22;2007;48.750;9.278;2022-07-29T06:28:21;26.60;55.20
3986;DHT22;2007;48.750;9.278;2022-07-29T06:30:49;26.60;55.20
3986;DHT22;2007;48.750;9.278;2022-07-29T06:33:18;26.60;55.20
3986;DHT22;2007;48.750;9.278;2022-07-29T06:35:46;26.60;55.20
3986;DHT22;2007;48.750;9.278;2022-07-29T06:38:22;26.60;55.20
3986;DHT22;2007;48.750;9.278;2022-07-29T06:40:57;26.60;55.20
3986;DHT22;2007;48.750;9.278;2022-07-29T06:43:28;26.60;55.20
3986;DHT22;2007;48.750;9.278;2022-07-29T06:45:59;26.60;55.20
3986;DHT22;2007;48.750;9.278;2022-07-29T06:48:28;26.60;55.20
3986;DHT22;2007;48.750;9.278;2022-07-29T06:50:56;26.60;55.20
3986;DHT22;2007;48.750;9.278;2022-07-29T06:53:27;26.60;55.20
3986;DHT22;2007;48.750;9.278;2022-07-29T06:55:55;26.60;55.20
3986;DHT22;2007;48.750;9.278;2022-07-29T06:58:25;26.60;55.20
3986;DHT22;2007;48.750;9.278;2022-07-29T07:00:53;26.60;55.20
3986;DHT22;2007;48.750;9.278;2022-07-29T07:03:21;26.60;55.20
3986;DHT22;2007;48.750;9.278;2022-07-29T07:05:50;26.60;55.20
3986;DHT22;2007;48.750;9.278;2022-07-29T07:08:19;26.60;55.20
3986;DHT22;2007;48.750;9.278;2022-07-29T07:10:50;26.60;55.20
3986;DHT22;2007;48.750;9.278;2022-07-29T07:13:18;26.60;55.10
3986;DHT22;2007;48.750;9.278;2022-07-29T07:15:46;26.60;55.20
3986;DHT22;2007;48.750;9.278;2022-07-29T07:18:15;26.60;55.20
3986;DHT22;2007;48.750;9.278;2022-07-29T07:20:44;26.60;55.10
3986;DHT22;2007;48.750;9.278;2022-07-29T07:23:12;26.60;55.20
3986;DHT22;2007;48.750;9.278;2022-07-29T07:25:40;26.50;55.10
3986;DHT22;2007;48.750;9.278;2022-07-29T07:28:09;26.60;55.20
3986;DHT22;2007;48.750;9.278;2022-07-29T07:30:37;26.50;55.00
3986;DHT22;2007;48.750;9.278;2022-07-29T07:33:06;26.50;55.00
3986;DHT22;2007;48.750;9.278;2022-07-29T07:35:34;26.60;55.10
3986;DHT22;2007;48.750;9.278;2022-07-29T07:38:02;26.50;55.10
3986;DHT22;2007;48.750;9.278;2022-07-29T07:40:32;26.50;55.70
3986;DHT22;2007;48.750;9.278;2022-07-29T07:43:01;26.50;55.00
3986;DHT22;2007;48.750;9.278;2022-07-29T07:45:31;26.50;55.00
3986;DHT22;2007;48.750;9.278;2022-07-29T07:48:00;26.50;55.00
3986;DHT22;2007;48.750;9.278;2022-07-29T07:50:28;26.50;55.00
3986;DHT22;2007;48.750;9.278;2022-07-29T07:52:56;26.50;55.00
3986;DHT22;2007;48.750;9.278;2022-07-29T07:55:25;26.50;55.00
3986;DHT22;2007;48.750;9.278;2022-07-29T07:57:53;26.50;55.00
3986;DHT22;2007;48.750;9.278;2022-07-29T08:00:21;26.50;55.00
3986;DHT22;2007;48.750;9.278;2022-07-29T08:02:51;26.50;55.10
3986;DHT22;2007;48.750;9.278;2022-07-29T08:05:19;26.50;55.10
3986;DHT22;2007;48.750;9.278;2022-07-29T08:07:47;26.50;55.10
3986;DHT22;2007;48.750;9.278;2022-07-29T08:10:16;26.50;55.10
3986;DHT22;2007;48.750;9.278;2022-07-29T08:13:06;26.50;55.10
3986;DHT22;2007;48.750;9.278;2022-07-29T08:15:34;26.50;55.10
3986;DHT22;2007;48.750;9.278;2022-07-29T08:18:04;26.50;55.10
3986;DHT22;2007;48.750;9.278;2022-07-29T08:20:34;26.50;55.10
3986;DHT22;2007;48.750;9.278;2022-07-29T08:23:03;26.50;55.10
3986;DHT22;2007;48.750;9.278;2022-07-29T08:25:34;26.50;55.20
3986;DHT22;2007;48.750;9.278;2022-07-29T08:28:05;26.50;55.10
3986;DHT22;2007;48.750;9.278;2022-07-29T08:30:33;26.50;55.20
3986;DHT22;2007;48.750;9.278;2022-07-29T08:33:01;26.50;55.10
3986;DHT22;2007;48.750;9.278;2022-07-29T08:35:31;26.50;55.10
3986;DHT22;2007;48.750;9.278;2022-07-29T08:38:02;26.50;55.20
3986;DHT22;2007;48.750;9.278;2022-07-29T08:40:31;26.50;55.20
3986;DHT22;2007;48.750;9.278;2022-07-29T08:43:03;26.40;55.10
3986;DHT22;2007;48.750;9.278;2022-07-29T08:45:41;26.50;55.20
3986;DHT22;2007;48.750;9.278;2022-07-29T08:48:15;26.50;55.20
3986;DHT22;2007;48.750;9.278;2022-07-29T08:50:46;26.50;55.20
3986;DHT22;2007;48.750;9.278;2022-07-29T08:53:17;26.50;55.20
3986;DHT22;2007;48.750;9.278;2022-07-29T08:55:46;26.50;55.20
3986;DHT22;2007;48.750;9.278;2022-07-29T08:58:16;26.50;55.20
3986;DHT22;2007;48.750;9.278;2022-07-29T09:00:51;26.50;55.20
3986;DHT22;2007;48.750;9.278;2022-07-29T09:03:24;26.50;55.20
3986;DHT22;2007;48.750;9.278;2022-07-29T09:05:53;26.50;55.20
3986;DHT22;2007;48.750;9.278;2022-07-29T09:08:21;26.50;55.20
3986;DHT22;2007;48.750;9.278;2022-07-29T09:10:50;26.50;55.20
3986;DHT22;2007;48.750;9.278;2022-07-29T09:13:18;26.50;55.20
3986;DHT22;2007;48.750;9.278;2022-07-29T09:15:46;26.50;55.20
3986;DHT22;2007;48.750;9.278;2022-07-29T09:18:33;26.50;55.20
3986;DHT22;2007;48.750;9.278;2022-07-29T09:21:03;26.50;55.20
3986;DHT22;2007;48.750;9.278;2022-07-29T09:24:04;26.50;55.20
3986;DHT22;2007;48.750;9.278;2022-07-29T09:26:34;26.50;55.20
3986;DHT22;2007;48.750;9.278;2022-07-29T09:29:08;26.50;55.20
3986;DHT22;2007;48.750;9.278;2022-07-29T09:31:39;26.50;55.20
3986;DHT22;2007;48.750;9.278;2022-07-29T09:34:07;26.50;55.20
3986;DHT22;2007;48.750;9.278;2022-07-29T09:36:41;26.40;55.20
3986;DHT22;2007;48.750;9.278;2022-07-29T09:39:09;26.40;55.20
3986;DHT22;2007;48.750;9.278;2022-07-29T09:41:48;26.40;55.80
3986;DHT22;2007;48.750;9.278;2022-07-29T09:44:16;26.40;55.20
3986;DHT22;2007;48.750;9.278;2022-07-29T09:46:58;26.40;55.20
3986;DHT22;2007;48.750;9.278;2022-07-29T09:49:32;26.40;55.20
3986;DHT22;2007;48.750;9.278;2022-07-29T09:52:07;26.40;55.20
3986;DHT22;2007;48.750;9.278;2022-07-29T09:54:36;26.40;55.20
3986;DHT22;2007;48.750;9.278;2022-07-29T09:57:06;26.40;55.20
3986;DHT22;2007;48.750;9.278;2022-07-29T09:59:35;26.40;55.20
3986;DHT22;2007;48.750;9.278;2022-07-29T10:02:16;26.40;55.20
3986;DHT22;2007;48.750;9.278;2022-07-29T10:04:49;26.40;55.20
3986;DHT22;2007;48.750;9.278;2022-07-29T10:07:22;26.40;55.20
3986;DHT22;2007;48.750;9.278;2022-07-29T10:09:56;26.40;55.20
3986;DHT22;2007;48.750;9.278;2022-07-29T10:12:24;26.40;55.20
3986;DHT22;2007;48.750;9.278;2022-07-29T10:14:53;26.40;55.20
3986;DHT22;2007;48.750;9.278;2022-07-29T10:17:22;26.40;55.20
3986;DHT22;2007;48.750;9.278;2022-07-29T10:19:50;26.40;55.20
3986;DHT22;2007;48.750;9.278;2022-07-29T10:22:18;26.40;55.20
3986;DHT22;2007;48.750;9.278;2022-07-29T10:25:08;26.40;55.20
3986;DHT22;2007;48.750;9.278;2022-07-29T10:27:37;26.40;55.20
3986;DHT22;2007;48.750;9.278;2022-07-29T10:30:06;26.40;55.20
3986;DHT22;2007;48.750;9.278;2022-07-29T10:32:47;26.40;55.20
3986;DHT22;2007;48.750;9.278;2022-07-29T10:35:31;26.40;55.20
3986;DHT22;2007;48.750;9.278;2022-07-29T10:41:23;26.40;55.20
3986;DHT22;2007;48.750;9.278;2022-07-29T10:44:14;26.40;55.20
3986;DHT22;2007;48.750;9.278;2022-07-29T10:46:45;26.40;55.20
3986;DHT22;2007;48.750;9.278;2022-07-29T10:49:15;26.40;55.20
3986;DHT22;2007;48.750;9.278;2022-07-29T10:52:08;26.40;55.20
3986;DHT22;2007;48.750;9.278;2022-07-29T10:54:48;26.40;55.20
3986;DHT22;2007;48.750;9.278;2022-07-29T10:57:21;26.40;55.20
3986;DHT22;2007;48.750;9.278;2022-07-29T11:00:31;26.40;55.30
3986;DHT22;2007;48.750;9.278;2022-07-29T11:03:00;26.40;55.30
3986;DHT22;2007;48.750;9.278;2022-07-29T11:05:55;26.40;55.30
3986;DHT22;2007;48.750;9.278;2022-07-29T11:08:26;26.40;55.30
3986;DHT22;2007;48.750;9.278;2022-07-29T11:14:18;26.40;55.30
3986;DHT22;2007;48.750;9.278;2022-07-29T11:17:03;26.40;55.30
3986;DHT22;2007;48.750;9.278;2022-07-29T11:19:32;26.40;55.30
3986;DHT22;2007;48.750;9.278;2022-07-29T11:22:01;26.40;55.30
3986;DHT22;2007;48.750;9.278;2022-07-29T11:24:31;26.40;55.30
3986;DHT22;2007;48.750;9.278;2022-07-29T11:27:21;26.40;55.30
3986;DHT22;2007;48.750;9.278;2022-07-29T11:29:57;26.40;55.30
3986;DHT22;2007;48.750;9.278;2022-07-29T11:32:37;26.40;55.30
3986;DHT22;2007;48.750;9.278;2022-07-29T11:35:13;26.40;55.30
3986;DHT22;2007;48.750;9.278;2022-07-29T11:37:44;26.40;55.30
3986;DHT22;2007;48.750;9.278;2022-07-29T11:40:32;26.40;55.30
3986;DHT22;2007;48.750;9.278;2022-07-29T11:43:01;26.40;55.30
3986;DHT22;2007;48.750;9.278;2022-07-29T11:45:50;26.40;55.30
3986;DHT22;2007;48.750;9.278;2022-07-29T11:48:20;26.40;55.30
3986;DHT22;2007;48.750;9.278;2022-07-29T11:50:56;26.40;55.30
3986;DHT22;2007;48.750;9.278;2022-07-29T11:53:24;26.40;55.30
3986;DHT22;2007;48.750;9.278;2022-07-29T11:55:59;26.40;55.30
3986;DHT22;2007;48.750;9.278;2022-07-29T11:58:29;26.40;55.30
3986;DHT22;2007;48.750;9.278;2022-07-29T12:00:59;26.40;55.30
3986;DHT22;2007;48.750;9.278;2022-07-29T12:03:31;26.40;55.30
3986;DHT22;2007;48.750;9.278;2022-07-29T12:06:03;26.40;55.30
3986;DHT22;2007;48.750;9.278;2022-07-29T12:08:41;26.40;55.30
3986;DHT22;2007;48.750;9.278;2022-07-29T12:11:18;26.40;55.30
3986;DHT22;2007;48.750;9.278;2022-07-29T12:13:49;26.40;55.30
3986;DHT22;2007;48.750;9.278;2022-07-29T12:16:19;26.40;55.30
3986;DHT22;2007;48.750;9.278;2022-07-29T12:18:58;26.30;55.30
3986;DHT22;2007;48.750;9.278;2022-07-29T12:21:28;26.30;55.90
3986;DHT22;2007;48.750;9.278;2022-07-29T12:23:57;26.40;55.30
3986;DHT22;2007;48.750;9.278;2022-07-29T12:26:34;26.30;55.30
3986;DHT22;2007;48.750;9.278;2022-07-29T12:29:02;26.30;55.30
3986;DHT22;2007;48.750;9.278;2022-07-29T12:31:38;26.40;55.30
3986;DHT22;2007;48.750;9.278;2022-07-29T12:34:11;26.30;55.30
3986;DHT22;2007;48.750;9.278;2022-07-29T12:36:40;26.40;55.40
3986;DHT22;2007;48.750;9.278;2022-07-29T12:39:09;26.30;55.30
3986;DHT22;2007;48.750;9.278;2022-07-29T12:41:38;26.30;55.30
3986;DHT22;2007;48.750;9.278;2022-07-29T12:44:06;26.30;55.30
3986;DHT22;2007;48.750;9.278;2022-07-29T12:46:34;26.30;55.30
3986;DHT22;2007;48.750;9.278;2022-07-29T12:49:04;26.30;55.30
3986;DHT22;2007;48.750;9.278;2022-07-29T12:51:33;26.30;55.30
3986;DHT22;2007;48.750;9.278;2022-07-29T12:54:06;26.30;55.30
3986;DHT22;2007;48.750;9.278;2022-07-29T12:56:34;26.30;55.30
3986;DHT22;2007;48.750;9.278;2022-07-29T12:59:15;26.30;55.30
3986;DHT22;2007;48.750;9.278;2022-07-29T13:01:43;26.30;55.30
3986;DHT22;2007;48.750;9.278;2022-07-29T13:04:24;26.30;55.30
3986;DHT22;2007;48.750;9.278;2022-07-29T13:06:59;26.30;55.30
3986;DHT22;2007;48.750;9.278;2022-07-29T13:09:37;26.30;55.30
3986;DHT22;2007;48.750;9.278;2022-07-29T13:12:07;26.30;55.30
3986;DHT22;2007;48.750;9.278;2022-07-29T13:14:37;26.30;55.30
3986;DHT22;2007;48.750;9.278;2022-07-29T13:17:08;26.30;55.30
3986;DHT22;2007;48.750;9.278;2022-07-29T13:19:38;26.30;55.30
3986;DHT22;2007;48.750;9.278;2022-07-29T13:22:08;26.30;55.30
3986;DHT22;2007;48.750;9.278;2022-07-29T13:24:49;26.30;55.30
3986;DHT22;2007;48.750;9.278;2022-07-29T13:27:18;26.30;55.30
3986;DHT22;2007;48.750;9.278;2022-07-29T13:29:47;26.30;55.40
3986;DHT22;2007;48.750;9.278;2022-07-29T13:32:17;26.30;55.30
3986;DHT22;2007;48.750;9.278;2022-07-29T13:34:56;26.30;55.40
3986;DHT22;2007;48.750;9.278;2022-07-29T13:37:24;26.30;55.30
3986;DHT22;2007;48.750;9.278;2022-07-29T13:39:56;26.30;55.30
3986;DHT22;2007;48.750;9.278;2022-07-29T13:42:24;26.30;55.40
3986;DHT22;2007;48.750;9.278;2022-07-29T13:44:52;26.30;55.40
3986;DHT22;2007;48.750;9.278;2022-07-29T13:47:20;26.30;55.40
3986;DHT22;2007;48.750;9.278;2022-07-29T13:50:00;26.30;55.40
3986;DHT22;2007;48.750;9.278;2022-07-29T13:52:28;26.30;55.40
3986;DHT22;2007;48.750;9.278;2022-07-29T13:54:56;26.30;55.40
3986;DHT22;2007;48.750;9.278;2022-07-29T13:57:24;26.20;55.30
3986;DHT22;2007;48.750;9.278;2022-07-29T13:59:52;26.30;55.40
3986;DHT22;2007;48.750;9.278;2022-07-29T14:02:20;26.30;55.40
3986;DHT22;2007;48.750;9.278;2022-07-29T14:04:51;26.30;55.40
3986;DHT22;2007;48.750;9.278;2022-07-29T14:07:21;26.30;55.40
3986;DHT22;2007;48.750;9.278;2022-07-29T14:09:50;26.30;55.40
3986;DHT22;2007;48.750;9.278;2022-07-29T14:12:18;26.30;55.40
3986;DHT22;2007;48.750;9.278;2022-07-29T14:14:46;26.30;55.40
3986;DHT22;2007;48.750;9.278;2022-07-29T14:17:14;26.30;55.40
3986;DHT22;2007;48.750;9.278;2022-07-29T14:19:42;26.20;55.40
3986;DHT22;2007;48.750;9.278;2022-07-29T14:22:10;26.30;55.40
3986;DHT22;2007;48.750;9.278;2022-07-29T14:24:39;26.20;55.30
3986;DHT22;2007;48.750;9.278;2022-07-29T14:27:08;26.20;55.30
3986;DHT22;2007;48.750;9.278;2022-07-29T14:29:36;26.30;55.40
3986;DHT22;2007;48.750;9.278;2022-07-29T14:32:05;26.20;55.40
3986;DHT22;2007;48.750;9.278;2022-07-29T14:34:34;26.30;56.00
3986;DHT22;2007;48.750;9.278;2022-07-29T14:37:02;26.20;55.40
3986;DHT22;2007;48.750;9.278;2022-07-29T14:39:32;26.20;55.40
3986;DHT22;2007;48.750;9.278;2022-07-29T14:42:09;26.20;55.40
3986;DHT22;2007;48.750;9.278;2022-07-29T14:44:38;26.20;55.40
3986;DHT22;2007;48.750;9.278;2022-07-29T14:47:08;26.20;55.40
3986;DHT22;2007;48.750;9.278;2022-07-29T14:49:36;26.30;55.40
3986;DHT22;2007;48.750;9.278;2022-07-29T14:52:04;26.20;55.40
3986;DHT22;2007;48.750;9.278;2022-07-29T14:54:32;26.20;55.40
3986;DHT22;2007;48.750;9.278;2022-07-29T14:57:00;26.20;55.40
3986;DHT22;2007;48.750;9.278;2022-07-29T14:59:29;26.20;55.40
3986;DHT22;2007;48.750;9.278;2022-07-29T15:01:57;26.20;55.40
3986;DHT22;2007;48.750;9.278;2022-07-29T15:04:26;26.20;55.40
3986;DHT22;2007;48.750;9.278;2022-07-29T15:06:54;26.20;55.40
3986;DHT22;2007;48.750;9.278;2022-07-29T15:09:22;26.20;55.40
3986;DHT22;2007;48.750;9.278;2022-07-29T15:11:50;26.20;55.40
3986;DHT22;2007;48.750;9.278;2022-07-29T15:14:18;26.20;55.40
3986;DHT22;2007;48.750;9.278;2022-07-29T15:16:47;26.20;56.00
3986;DHT22;2007;48.750;9.278;2022-07-29T15:19:18;26.20;55.40
3986;DHT22;2007;48.750;9.278;2022-07-29T15:21:46;26.20;55.40
3986;DHT22;2007;48.750;9.278;2022-07-29T15:24:15;26.20;55.40
3986;DHT22;2007;48.750;9.278;2022-07-29T15:26:43;26.20;55.40
3986;DHT22;2007;48.750;9.278;2022-07-29T15:29:11;26.20;55.40
3986;DHT22;2007;48.750;9.278;2022-07-29T15:31:40;26.20;55.40
3986;DHT22;2007;48.750;9.278;2022-07-29T15:34:09;26.20;55.40
3986;DHT22;2007;48.750;9.278;2022-07-29T15:36:37;26.20;55.40
3986;DHT22;2007;48.750;9.278;2022-07-29T15:39:18;26.20;55.40
3986;DHT22;2007;48.750;9.278;2022-07-29T15:41:46;26.20;55.50
3986;DHT22;2007;48.750;9.278;2022-07-29T15:44:14;26.20;55.40
3986;DHT22;2007;48.750;9.278;2022-07-29T15:46:42;26.20;55.40
3986;DHT22;2007;48.750;9.278;2022-07-29T15:49:29;26.20;55.40
3986;DHT22;2007;48.750;9.278;2022-07-29T15:52:15;26.20;55.40
3986;DHT22;2007;48.750;9.278;2022-07-29T15:54:43;26.20;55.40
3986;DHT22;2007;48.750;9.278;2022-07-29T15:57:12;26.20;55.40
3986;DHT22;2007;48.750;9.278;2022-07-29T15:59:40;26.20;55.40
3986;DHT22;2007;48.750;9.278;2022-07-29T16:02:08;26.20;55.40
3986;DHT22;2007;48.750;9.278;2022-07-29T16:04:38;26.20;55.40
3986;DHT22;2007;48.750;9.278;2022-07-29T16:07:06;26.20;55.40
3986;DHT22;2007;48.750;9.278;2022-07-29T16:09:34;26.20;55.40
3986;DHT22;2007;48.750;9.278;2022-07-29T16:12:02;26.20;55.40
3986;DHT22;2007;48.750;9.278;2022-07-29T16:14:41;26.20;55.50
3986;DHT22;2007;48.750;9.278;2022-07-29T16:17:09;26.20;55.40
3986;DHT22;2007;48.750;9.278;2022-07-29T16:19:42;26.20;55.40
3986;DHT22;2007;48.750;9.278;2022-07-29T16:22:11;26.20;55.40
3986;DHT22;2007;48.750;9.278;2022-07-29T16:24:39;26.20;55.40
3986;DHT22;2007;48.750;9.278;2022-07-29T16:27:07;26.20;55.50
3986;DHT22;2007;48.750;9.278;2022-07-29T16:29:35;26.20;55.40
3986;DHT22;2007;48.750;9.278;2022-07-29T16:32:04;26.20;55.50
3986;DHT22;2007;48.750;9.278;2022-07-29T16:34:32;26.20;55.50